createdAt,value
2022-08-18T00:02:06.765Z,9.20
2022-08-18T00:04:41.005Z,9.40
2022-08-18T00:07:31.247Z,9.80
2022-08-18T00:10:00.068Z,9.10
2022-08-18T00:12:39.152Z,9.50
2022-08-18T00:15:10.657Z,9.40
2022-08-18T00:17:38.027Z,9.30
2022-08-18T00:20:11.907Z,9.50
2022-08-18T00:22:41.894Z,8.90
2022-08-18T00:25:12.284Z,9.60
2022-08-18T00:27:40.766Z,9.10
2022-08-18T00:30:12.966Z,9.80
2022-08-18T00:32:44.797Z,10.00
2022-08-18T00:35:34.564Z,9.50
2022-08-18T00:38:04.826Z,8.80
2022-08-18T00:40:48.143Z,9.70
2022-08-18T00:43:45.895Z,9.70
2022-08-18T00:46:18.814Z,8.80
2022-08-18T00:48:48.328Z,10.20
2022-08-18T00:51:25.778Z,9.00
2022-08-18T00:54:20.581Z,9.40
2022-08-18T00:56:55.615Z,10.20
2022-08-18T00:59:55.448Z,10.40
2022-08-18T01:02:36.409Z,10.00
2022-08-18T01:05:14.783Z,10.70
2022-08-18T01:07:48.643Z,10.70
2022-08-18T01:10:19.853Z,11.30
2022-08-18T01:12:57.565Z,11.20
2022-08-18T01:15:30.239Z,11.10
2022-08-18T01:18:20.751Z,10.90
2022-08-18T01:21:23.230Z,11.70
2022-08-18T01:23:53.571Z,10.50
2022-08-18T01:26:22.065Z,10.40
2022-08-18T01:28:49.332Z,10.80
2022-08-18T01:31:37.264Z,11.40
2022-08-18T01:34:08.233Z,11.30
2022-08-18T01:36:39.999Z,11.10
2022-08-18T01:39:12.168Z,10.60
2022-08-18T01:41:40.195Z,11.80
2022-08-18T01:44:10.610Z,10.70
2022-08-18T01:46:40.950Z,11.60
2022-08-18T01:49:09.863Z,12.00
2022-08-18T01:51:41.981Z,11.90
2022-08-18T01:54:12.999Z,11.50
2022-08-18T01:56:41.871Z,11.80
2022-08-18T01:59:13.808Z,12.10
2022-08-18T02:01:50.404Z,12.00
2022-08-18T02:04:37.122Z,11.70
2022-08-18T02:07:11.037Z,10.30
2022-08-18T02:09:40.981Z,11.60
2022-08-18T02:12:08.725Z,10.70
2022-08-18T02:14:36.709Z,10.80
2022-08-18T02:17:07.101Z,10.60
2022-08-18T02:19:39.008Z,10.60
2022-08-18T02:22:08.692Z,9.90
2022-08-18T02:24:37.160Z,10.10
2022-08-18T02:27:05.581Z,10.00
2022-08-18T02:29:32.889Z,9.40
2022-08-18T02:31:59.794Z,9.40
2022-08-18T02:34:26.742Z,9.90
2022-08-18T02:36:53.693Z,9.60
2022-08-18T02:39:20.784Z,9.30
2022-08-18T02:41:47.737Z,9.80
2022-08-18T02:44:14.852Z,8.90
2022-08-18T02:46:41.680Z,9.90
2022-08-18T02:49:09.215Z,9.20
2022-08-18T02:51:36.068Z,9.80
2022-08-18T02:54:03.152Z,9.70
2022-08-18T02:56:40.347Z,9.20
2022-08-18T02:59:15.823Z,9.00
2022-08-18T03:01:46.356Z,9.80
2022-08-18T03:04:21.137Z,9.20
2022-08-18T03:06:49.868Z,9.10
2022-08-18T03:09:18.073Z,9.70
2022-08-18T03:11:45.797Z,11.60
2022-08-18T03:14:14.214Z,10.40
2022-08-18T03:16:53.871Z,10.80
2022-08-18T03:19:27.697Z,10.70
2022-08-18T03:21:55.230Z,11.50
2022-08-18T03:24:27.733Z,11.80
2022-08-18T03:26:58.782Z,11.70
2022-08-18T03:29:31.314Z,11.70
2022-08-18T03:32:02.575Z,10.90
2022-08-18T03:34:29.980Z,11.30
2022-08-18T03:36:57.243Z,12.30
2022-08-18T03:39:27.027Z,10.90
2022-08-18T03:41:58.053Z,11.80
2022-08-18T03:44:32.083Z,11.70
2022-08-18T03:47:02.264Z,12.60
2022-08-18T03:49:30.834Z,14.70
2022-08-18T03:52:00.156Z,14.50
2022-08-18T03:54:29.105Z,21.00
2022-08-18T03:56:56.041Z,28.80
2022-08-18T03:59:25.527Z,26.50
2022-08-18T04:01:54.399Z,24.80
2022-08-18T04:04:26.713Z,23.90
2022-08-18T04:06:57.717Z,22.30
2022-08-18T04:09:27.885Z,22.20
2022-08-18T04:11:55.701Z,20.50
2022-08-18T04:14:27.978Z,18.80
2022-08-18T04:16:54.816Z,18.80
2022-08-18T04:19:25.184Z,19.10
2022-08-18T04:21:56.294Z,19.50
2022-08-18T04:24:25.637Z,18.10
2022-08-18T04:26:52.900Z,18.40
2022-08-18T04:29:21.038Z,17.80
2022-08-18T04:31:49.855Z,17.20
2022-08-18T04:34:19.826Z,18.70
2022-08-18T04:36:46.665Z,19.60
2022-08-18T04:39:13.506Z,19.10
2022-08-18T04:41:43.442Z,19.60
2022-08-18T04:44:12.332Z,18.20
2022-08-18T04:46:43.735Z,15.90
2022-08-18T04:49:11.586Z,17.60
2022-08-18T04:52:36.099Z,15.30
2022-08-18T04:54:55.236Z,14.70
2022-08-18T04:57:22.457Z,13.50
2022-08-18T04:59:51.670Z,14.00
2022-08-18T05:02:20.606Z,15.10
2022-08-18T05:04:47.867Z,12.10
2022-08-18T05:07:19.321Z,13.90
2022-08-18T05:09:46.343Z,12.70
2022-08-18T05:12:14.927Z,13.10
2022-08-18T05:14:44.564Z,12.00
2022-08-18T05:17:13.760Z,12.50
2022-08-18T05:19:44.299Z,11.60
2022-08-18T05:22:27.826Z,11.90
2022-08-18T05:24:59.312Z,12.10
2022-08-18T05:27:32.417Z,11.90
2022-08-18T05:29:59.412Z,11.40
2022-08-18T05:32:37.119Z,12.60
2022-08-18T05:35:24.625Z,12.50
2022-08-18T05:38:15.058Z,11.80
2022-08-18T05:40:45.405Z,11.30
2022-08-18T05:43:15.769Z,11.30
2022-08-18T05:45:43.506Z,11.30
2022-08-18T05:48:10.349Z,11.70
2022-08-18T05:50:37.275Z,11.00
2022-08-18T05:53:40.367Z,11.40
2022-08-18T05:56:29.554Z,11.00
2022-08-18T05:58:59.008Z,10.40
2022-08-18T06:01:38.230Z,11.10
2022-08-18T06:04:42.236Z,11.30
2022-08-18T06:07:18.794Z,11.30
2022-08-18T06:09:54.480Z,11.00
2022-08-18T06:12:37.337Z,10.80
2022-08-18T06:15:16.320Z,10.90
2022-08-18T06:17:58.420Z,11.50
2022-08-18T06:20:55.520Z,10.90
2022-08-18T06:24:09.010Z,24.60
2022-08-18T06:30:11.988Z,22.30
2022-08-18T06:33:19.004Z,21.60
2022-08-18T06:35:50.035Z,20.50
2022-08-18T06:38:45.490Z,18.20
2022-08-18T06:41:42.925Z,18.70
2022-08-18T06:44:32.701Z,18.90
2022-08-18T06:47:15.479Z,17.70
2022-08-18T06:50:02.650Z,17.60
2022-08-18T06:52:36.220Z,16.20
2022-08-18T06:55:16.405Z,18.30
2022-08-18T06:57:59.313Z,16.00
2022-08-18T07:03:13.837Z,12.80
2022-08-18T07:06:02.173Z,13.20
2022-08-18T07:08:40.766Z,11.50
2022-08-18T07:11:16.809Z,12.90
2022-08-18T07:13:54.936Z,12.70
2022-08-18T07:16:57.208Z,12.30
2022-08-18T07:19:29.270Z,14.80
2022-08-18T07:22:16.923Z,13.60
2022-08-18T07:24:51.084Z,14.30
2022-08-18T07:27:44.218Z,13.50
2022-08-18T07:33:12.036Z,12.90
2022-08-18T07:36:05.225Z,12.50
2022-08-18T07:38:52.821Z,12.30
2022-08-18T07:41:33.253Z,11.60
2022-08-18T07:44:24.565Z,12.20
2022-08-18T07:47:03.085Z,11.30
2022-08-18T07:49:39.028Z,11.10
2022-08-18T07:52:36.407Z,10.90
2022-08-18T07:55:30.662Z,9.50
2022-08-18T07:58:19.899Z,10.80
2022-08-18T08:01:40.820Z,10.80
2022-08-18T08:04:25.276Z,10.90
2022-08-18T08:07:24.377Z,11.30
2022-08-18T08:10:11.508Z,10.80
2022-08-18T08:13:10.610Z,12.00
2022-08-18T08:16:18.015Z,11.60
2022-08-18T08:18:59.589Z,9.90
2022-08-18T08:21:32.592Z,10.40
2022-08-18T08:24:29.522Z,10.50
2022-08-18T08:27:11.403Z,11.60
2022-08-18T08:30:17.807Z,10.30
2022-08-18T08:33:03.396Z,10.50
2022-08-18T08:35:50.930Z,10.10
2022-08-18T08:38:42.234Z,10.70
2022-08-18T08:41:19.260Z,9.50
2022-08-18T08:44:09.755Z,9.40
2022-08-18T08:46:58.344Z,18.50
2022-08-18T08:49:34.414Z,14.50
2022-08-18T08:52:44.080Z,11.50
2022-08-18T08:55:26.276Z,10.80
2022-08-18T08:58:28.801Z,10.90
2022-08-18T09:00:57.284Z,8.70
2022-08-18T09:03:42.396Z,9.20
2022-08-18T09:06:51.001Z,10.00
2022-08-18T09:09:49.862Z,8.30
2022-08-18T09:12:41.453Z,8.80
2022-08-18T09:15:53.126Z,9.40
2022-08-18T09:19:07.807Z,10.20
2022-08-18T09:21:45.304Z,8.20
2022-08-18T09:24:39.543Z,7.40
2022-08-18T09:27:26.297Z,7.60
2022-08-18T09:30:01.841Z,8.20
2022-08-18T09:32:52.935Z,8.10
2022-08-18T09:35:42.309Z,8.40
2022-08-18T09:38:41.323Z,8.50
2022-08-18T09:41:32.292Z,8.10
2022-08-18T09:44:21.533Z,8.50
2022-08-18T09:46:57.514Z,8.30
2022-08-18T09:49:24.561Z,7.10
2022-08-18T09:52:02.167Z,8.40
2022-08-18T09:54:32.785Z,7.10
2022-08-18T09:57:19.200Z,8.70
2022-08-18T09:59:47.168Z,7.60
2022-08-18T10:02:28.624Z,7.00
2022-08-18T10:05:20.443Z,7.40
2022-08-18T10:08:10.150Z,7.40
2022-08-18T10:11:02.622Z,7.00
2022-08-18T10:17:23.931Z,7.50
2022-08-18T10:20:23.957Z,8.20
2022-08-18T10:22:56.013Z,7.60
2022-08-18T10:28:55.536Z,7.40
2022-08-18T10:31:27.225Z,7.20
2022-08-18T10:34:18.971Z,8.40
2022-08-18T10:36:59.921Z,7.90
2022-08-18T10:39:52.317Z,7.60
2022-08-18T10:42:53.545Z,8.10
2022-08-18T10:46:24.566Z,7.90
2022-08-18T10:48:40.329Z,7.20
2022-08-18T10:51:10.725Z,7.50
2022-08-18T10:54:09.638Z,7.40
2022-08-18T10:56:47.573Z,7.00
2022-08-18T10:59:59.396Z,7.10
2022-08-18T11:02:37.134Z,6.80
2022-08-18T11:05:11.074Z,6.80
2022-08-18T11:11:06.299Z,6.30
2022-08-18T11:13:59.590Z,5.90
2022-08-18T11:16:38.828Z,5.80
2022-08-18T11:19:16.837Z,6.10
2022-08-18T11:21:51.372Z,5.90
2022-08-18T11:24:28.085Z,6.80
2022-08-18T11:27:04.494Z,7.00
2022-08-18T11:29:43.721Z,6.80
2022-08-18T11:32:24.130Z,6.00
2022-08-18T11:35:02.973Z,6.40
2022-08-18T11:37:51.599Z,6.70
2022-08-18T11:43:40.752Z,6.50
2022-08-18T11:46:29.356Z,6.50
2022-08-18T11:49:01.108Z,6.80
2022-08-18T11:51:32.322Z,6.90
2022-08-18T11:54:14.868Z,6.40
2022-08-18T11:56:41.727Z,6.70
2022-08-18T11:59:54.945Z,6.40
2022-08-18T12:02:25.266Z,6.50
2022-08-18T12:05:03.027Z,6.80
2022-08-18T12:07:35.397Z,6.10
2022-08-18T12:13:02.348Z,6.10
2022-08-18T12:15:43.382Z,5.60
2022-08-18T12:20:59.389Z,6.10
2022-08-18T12:26:27.206Z,5.60
2022-08-18T12:29:03.602Z,6.20
2022-08-18T12:31:42.491Z,6.30
2022-08-18T12:34:28.158Z,5.80
2022-08-18T12:37:02.650Z,6.30
2022-08-18T12:39:38.139Z,5.70
2022-08-18T12:42:05.336Z,6.10
2022-08-18T12:44:33.633Z,5.80
2022-08-18T12:47:05.441Z,6.00
2022-08-18T12:49:33.758Z,5.20
2022-08-18T12:52:00.568Z,5.90
2022-08-18T12:54:32.246Z,6.00
2022-08-18T12:59:54.214Z,6.00
2022-08-18T13:02:21.750Z,6.00
2022-08-18T13:04:48.630Z,6.90
2022-08-18T13:07:18.941Z,7.00
2022-08-18T13:09:53.321Z,6.70
2022-08-18T13:12:24.898Z,6.40
2022-08-18T13:14:54.125Z,6.30
2022-08-18T13:17:30.101Z,7.20
2022-08-18T13:20:07.933Z,7.60
2022-08-18T13:22:39.826Z,7.10
2022-08-18T13:25:12.190Z,6.80
2022-08-18T13:27:39.383Z,6.60
2022-08-18T13:30:29.536Z,7.30
2022-08-18T13:33:05.935Z,6.60
2022-08-18T13:35:48.407Z,6.70
2022-08-18T13:38:27.221Z,6.10
2022-08-18T13:41:00.176Z,7.60
2022-08-18T13:46:06.271Z,6.00
2022-08-18T13:48:33.870Z,5.80
2022-08-18T13:51:03.466Z,6.70
2022-08-18T13:53:31.930Z,6.60
2022-08-18T13:55:59.713Z,6.50
2022-08-18T13:58:28.457Z,6.60
2022-08-18T14:01:39.563Z,6.50
2022-08-18T14:03:50.281Z,6.50
2022-08-18T14:06:22.952Z,6.00
2022-08-18T14:08:53.327Z,6.00
2022-08-18T14:11:27.359Z,6.00
2022-08-18T14:13:55.725Z,6.00
2022-08-18T14:16:27.375Z,5.80
2022-08-18T14:19:12.665Z,5.90
2022-08-18T14:22:03.752Z,6.00
2022-08-18T14:24:51.462Z,6.00
2022-08-18T14:27:26.650Z,5.70
2022-08-18T14:29:58.905Z,5.50
2022-08-18T14:32:29.924Z,6.40
2022-08-18T14:35:31.964Z,6.10
2022-08-18T14:37:48.347Z,5.90
2022-08-18T14:40:19.328Z,6.20
2022-08-18T14:42:54.253Z,5.90
2022-08-18T14:45:31.587Z,6.20
2022-08-18T14:48:07.511Z,5.90
2022-08-18T14:50:48.914Z,5.80
2022-08-18T14:53:19.667Z,5.70
2022-08-18T14:55:51.751Z,6.10
2022-08-18T14:58:27.316Z,6.10
2022-08-18T15:00:56.887Z,5.80
2022-08-18T15:03:28.186Z,6.10
2022-08-18T15:06:04.689Z,6.20
2022-08-18T15:08:36.091Z,6.00
2022-08-18T15:11:11.410Z,6.00
2022-08-18T15:13:42.960Z,6.10
2022-08-18T15:16:11.042Z,6.10
2022-08-18T15:18:37.848Z,6.00
2022-08-18T15:21:35.440Z,6.20
2022-08-18T15:24:25.944Z,6.60
2022-08-18T15:26:57.976Z,5.80
2022-08-18T15:29:33.653Z,6.90
2022-08-18T15:32:10.125Z,5.50
2022-08-18T15:34:46.726Z,6.30
2022-08-18T15:37:22.334Z,6.30
2022-08-18T15:40:02.826Z,6.30
2022-08-18T15:42:31.159Z,6.00
2022-08-18T15:45:11.963Z,6.10
2022-08-18T15:47:40.152Z,6.20
2022-08-18T15:50:25.266Z,5.50
2022-08-18T15:52:59.064Z,6.30
2022-08-18T15:55:29.098Z,6.20
2022-08-18T15:58:03.088Z,6.40
2022-08-18T16:00:31.852Z,7.00
2022-08-18T16:03:04.108Z,7.00
2022-08-18T16:05:40.200Z,6.80
2022-08-18T16:08:09.809Z,7.30
2022-08-18T16:10:39.441Z,7.90
2022-08-18T16:13:07.325Z,7.20
2022-08-18T16:15:40.757Z,7.30
2022-08-18T16:18:08.977Z,7.80
2022-08-18T16:20:36.770Z,7.20
2022-08-18T16:23:04.797Z,8.90
2022-08-18T16:25:32.435Z,6.50
2022-08-18T16:28:00.567Z,6.90
2022-08-18T16:30:28.834Z,6.80
2022-08-18T16:33:02.160Z,6.70
2022-08-18T16:35:29.935Z,7.30
2022-08-18T16:38:03.752Z,6.60
2022-08-18T16:40:31.001Z,8.80
2022-08-18T16:42:59.880Z,8.50
2022-08-18T16:45:28.284Z,7.70
2022-08-18T16:47:55.113Z,8.20
2022-08-18T16:50:24.328Z,7.90
2022-08-18T16:52:51.684Z,7.00
2022-08-18T16:55:19.623Z,7.10
2022-08-18T16:58:05.278Z,7.40
2022-08-18T17:00:55.190Z,7.80
2022-08-18T17:03:42.313Z,7.80
2022-08-18T17:06:16.772Z,8.60
2022-08-18T17:08:44.845Z,6.40
2022-08-18T17:11:18.298Z,8.90
2022-08-18T17:13:48.177Z,7.10
2022-08-18T17:16:17.630Z,6.20
2022-08-18T17:18:45.595Z,6.00
2022-08-18T17:21:17.916Z,5.90
2022-08-18T17:26:39.439Z,6.30
2022-08-18T17:29:26.608Z,6.20
2022-08-18T17:32:05.551Z,6.70
2022-08-18T17:34:42.101Z,7.10
2022-08-18T17:37:14.702Z,7.00
2022-08-18T17:39:59.944Z,6.60
2022-08-18T17:42:30.708Z,6.80
2022-08-18T17:45:07.537Z,6.50
2022-08-18T17:47:39.963Z,7.30
2022-08-18T17:50:39.351Z,7.20
2022-08-18T17:53:06.434Z,7.60
2022-08-18T17:56:00.929Z,7.40
2022-08-18T17:58:58.149Z,8.30
2022-08-18T18:01:26.772Z,8.60
2022-08-18T18:03:53.987Z,8.90
2022-08-18T18:06:40.299Z,9.30
2022-08-18T18:09:30.686Z,9.50
2022-08-18T18:12:22.881Z,9.80
2022-08-18T18:14:49.885Z,9.40
2022-08-18T18:17:39.693Z,9.60
2022-08-18T18:20:45.287Z,10.20
2022-08-18T18:23:22.124Z,9.70
2022-08-18T18:25:49.969Z,10.30
2022-08-18T18:28:35.380Z,9.30
2022-08-18T18:31:27.323Z,9.90
2022-08-18T18:34:06.366Z,9.30
2022-08-18T18:36:50.390Z,11.40
2022-08-18T18:39:33.818Z,11.30
2022-08-18T18:42:23.273Z,9.30
2022-08-18T18:44:58.460Z,8.80
2022-08-18T18:48:51.080Z,8.70
2022-08-18T18:51:10.541Z,8.90
2022-08-18T18:54:05.677Z,8.00
2022-08-18T18:56:45.018Z,8.10
2022-08-18T18:59:52.919Z,7.20
2022-08-18T19:02:48.909Z,7.10
2022-08-18T19:05:30.938Z,9.60
2022-08-18T19:08:33.171Z,9.50
2022-08-18T19:11:21.775Z,9.10
2022-08-18T19:13:56.825Z,10.30
2022-08-18T19:16:43.291Z,13.10
2022-08-18T19:19:37.599Z,16.40
2022-08-18T19:22:26.770Z,16.60
2022-08-18T19:25:07.066Z,15.50
2022-08-18T19:28:08.353Z,15.10
2022-08-18T19:30:42.038Z,11.90
2022-08-18T19:33:15.088Z,11.10
2022-08-18T19:39:16.693Z,9.80
2022-08-18T19:41:57.403Z,9.80
2022-08-18T19:45:14.966Z,9.30
2022-08-18T19:48:00.383Z,9.50
2022-08-18T19:50:37.405Z,9.80
2022-08-18T19:53:10.044Z,9.30
2022-08-18T19:56:21.508Z,9.70
2022-08-18T19:59:39.569Z,10.00
2022-08-18T20:02:34.545Z,9.40
2022-08-18T20:05:58.775Z,9.90
2022-08-18T20:09:52.953Z,9.30
2022-08-18T20:13:09.321Z,8.60
2022-08-18T20:16:11.494Z,8.80
2022-08-18T20:18:48.383Z,8.60
2022-08-18T20:21:15.110Z,8.80
2022-08-18T20:24:11.845Z,9.10
2022-08-18T20:26:44.394Z,9.50
2022-08-18T20:29:38.148Z,9.70
2022-08-18T20:32:18.951Z,9.10
2022-08-18T20:34:51.173Z,8.60
2022-08-18T20:37:28.230Z,8.90
2022-08-18T20:39:55.736Z,10.30
2022-08-18T20:42:22.595Z,9.40
2022-08-18T20:44:58.887Z,9.30
2022-08-18T20:48:02.364Z,9.70
2022-08-18T20:50:47.931Z,9.30
2022-08-18T20:53:58.491Z,10.40
2022-08-18T20:56:52.798Z,10.20
2022-08-18T20:59:32.053Z,10.80
2022-08-18T21:02:05.275Z,10.80
2022-08-18T21:04:48.904Z,9.70
2022-08-18T21:07:18.581Z,9.60
2022-08-18T21:10:22.513Z,9.50
2022-08-18T21:12:58.804Z,9.30
2022-08-18T21:15:30.012Z,9.10
2022-08-18T21:18:04.179Z,9.60
2022-08-18T21:20:32.608Z,9.50
2022-08-18T21:23:13.268Z,8.70
2022-08-18T21:25:54.352Z,9.20
2022-08-18T21:28:24.764Z,9.60
2022-08-18T21:31:42.101Z,9.90
2022-08-18T21:34:31.803Z,9.70
2022-08-18T21:37:05.824Z,10.70
2022-08-18T21:39:34.314Z,11.40
2022-08-18T21:42:01.877Z,10.00
2022-08-18T21:44:41.058Z,10.10
2022-08-18T21:47:24.781Z,9.30
2022-08-18T21:50:17.286Z,9.40
2022-08-18T21:53:04.828Z,8.90
2022-08-18T21:55:42.657Z,9.20
2022-08-18T21:58:09.418Z,8.90
2022-08-18T22:00:40.369Z,8.90
2022-08-18T22:03:24.404Z,10.20
2022-08-18T22:06:39.820Z,9.90
2022-08-18T22:09:28.075Z,9.70
2022-08-18T22:12:43.552Z,10.20
2022-08-18T22:15:25.421Z,9.40
2022-08-18T22:18:06.888Z,9.50
2022-08-18T22:20:38.038Z,8.80
2022-08-18T22:23:54.351Z,9.00
2022-08-18T22:26:28.719Z,9.60
2022-08-18T22:29:11.111Z,8.70
2022-08-18T22:31:44.984Z,8.60
2022-08-18T22:34:28.276Z,8.80
2022-08-18T22:37:07.072Z,8.80
2022-08-18T22:39:51.019Z,8.70
2022-08-18T22:42:21.160Z,8.60
2022-08-18T22:44:48.440Z,8.50
2022-08-18T22:47:15.712Z,8.10
2022-08-18T22:49:44.534Z,8.30
2022-08-18T22:52:30.098Z,8.60
2022-08-18T22:54:59.413Z,9.00
2022-08-18T22:57:33.831Z,8.70
2022-08-18T23:02:36.082Z,9.20
2022-08-18T23:05:04.893Z,8.30
2022-08-18T23:07:31.902Z,9.60
2022-08-18T23:09:59.612Z,9.20
2022-08-18T23:12:26.491Z,8.40
2022-08-18T23:14:54.344Z,9.00
2022-08-18T23:17:22.053Z,8.50
2022-08-18T23:19:49.037Z,9.40
2022-08-18T23:22:19.365Z,8.70
2022-08-18T23:24:47.864Z,8.50
2022-08-18T23:27:15.330Z,8.60
2022-08-18T23:29:42.175Z,8.80
2022-08-18T23:32:08.999Z,8.20
2022-08-18T23:34:36.252Z,8.10
2022-08-18T23:37:03.972Z,8.60
2022-08-18T23:39:34.130Z,8.50
2022-08-18T23:42:02.904Z,9.00
2022-08-18T23:44:29.856Z,8.70
2022-08-18T23:46:58.419Z,9.00
2022-08-18T23:49:28.068Z,9.10
2022-08-18T23:51:55.536Z,9.70
2022-08-18T23:54:29.329Z,9.80
2022-08-18T23:56:56.912Z,9.80
2022-08-18T23:59:26.515Z,9.20
